createdAt,value
2022-12-15T00:02:17.924Z,23.70
2022-12-15T00:05:03.268Z,23.60
2022-12-15T00:07:49.699Z,23.60
2022-12-15T00:10:35.301Z,23.60
2022-12-15T00:13:20.468Z,23.60
2022-12-15T00:16:05.690Z,23.60
2022-12-15T00:18:51.110Z,23.60
2022-12-15T00:21:36.355Z,23.60
2022-12-15T00:24:23.636Z,23.60
2022-12-15T00:27:08.743Z,23.60
2022-12-15T00:29:53.912Z,23.60
2022-12-15T00:32:38.998Z,23.60
2022-12-15T00:35:24.829Z,23.60
2022-12-15T00:38:10.050Z,23.60
2022-12-15T00:40:39.125Z,23.60
2022-12-15T00:43:06.870Z,23.50
2022-12-15T00:45:48.680Z,23.50
2022-12-15T00:48:16.366Z,23.50
2022-12-15T00:51:02.458Z,23.50
2022-12-15T00:53:47.599Z,23.50
2022-12-15T00:56:34.016Z,23.50
2022-12-15T00:59:19.190Z,23.50
2022-12-15T01:02:04.756Z,23.50
2022-12-15T01:04:50.268Z,23.50
2022-12-15T01:07:35.473Z,23.50
2022-12-15T01:10:20.640Z,23.40
2022-12-15T01:13:07.066Z,23.40
2022-12-15T01:15:54.872Z,23.40
2022-12-15T01:18:40.198Z,23.40
2022-12-15T01:21:09.897Z,23.40
2022-12-15T01:23:38.400Z,23.40
2022-12-15T01:26:07.495Z,23.40
2022-12-15T01:28:37.230Z,23.40
2022-12-15T01:31:11.547Z,23.40
2022-12-15T01:33:39.701Z,23.40
2022-12-15T01:36:07.652Z,23.30
2022-12-15T01:38:35.349Z,23.30
2022-12-15T01:41:04.883Z,23.30
2022-12-15T01:43:35.227Z,23.30
2022-12-15T01:46:06.892Z,23.30
2022-12-15T01:48:42.320Z,23.30
2022-12-15T01:51:15.547Z,23.30
2022-12-15T01:53:52.262Z,23.30
2022-12-15T01:56:20.913Z,23.30
2022-12-15T01:58:52.181Z,23.30
2022-12-15T02:01:21.478Z,23.20
2022-12-15T02:03:49.632Z,23.20
2022-12-15T02:06:21.609Z,23.20
2022-12-15T02:08:51.973Z,23.20
2022-12-15T02:11:57.851Z,23.20
2022-12-15T02:14:40.889Z,23.20
2022-12-15T02:17:20.149Z,23.20
2022-12-15T02:20:23.276Z,23.20
2022-12-15T02:23:27.655Z,23.20
2022-12-15T02:26:14.263Z,23.10
2022-12-15T02:28:53.598Z,23.10
2022-12-15T02:31:47.024Z,23.10
2022-12-15T02:34:24.342Z,23.10
2022-12-15T02:36:56.940Z,23.10
2022-12-15T02:39:24.944Z,23.10
2022-12-15T02:41:53.061Z,23.10
2022-12-15T02:44:26.328Z,23.10
2022-12-15T02:47:14.855Z,23.10
2022-12-15T02:49:50.171Z,23.10
2022-12-15T02:52:32.256Z,23.10
2022-12-15T02:55:12.425Z,23.00
2022-12-15T02:57:50.815Z,23.00
2022-12-15T03:00:19.178Z,23.00
2022-12-15T03:02:51.236Z,23.00
2022-12-15T03:05:20.540Z,23.00
2022-12-15T03:07:51.077Z,23.00
2022-12-15T03:10:19.468Z,23.00
2022-12-15T03:12:47.148Z,23.00
2022-12-15T03:15:15.096Z,23.00
2022-12-15T03:17:42.785Z,23.00
2022-12-15T03:20:12.706Z,23.00
2022-12-15T03:22:40.759Z,22.90
2022-12-15T03:25:09.224Z,22.90
2022-12-15T03:27:37.808Z,22.90
2022-12-15T03:30:06.838Z,22.90
2022-12-15T03:32:34.480Z,22.90
2022-12-15T03:35:02.382Z,22.90
2022-12-15T03:37:31.424Z,22.90
2022-12-15T03:39:59.198Z,22.90
2022-12-15T03:42:40.805Z,22.90
2022-12-15T03:45:09.267Z,22.90
2022-12-15T03:47:36.993Z,22.90
2022-12-15T03:50:05.398Z,22.80
2022-12-15T03:52:34.419Z,22.80
2022-12-15T03:55:02.135Z,22.80
2022-12-15T03:57:29.777Z,22.80
2022-12-15T03:59:57.500Z,22.80
2022-12-15T04:02:25.351Z,22.80
2022-12-15T04:04:53.282Z,22.80
2022-12-15T04:07:20.923Z,22.80
2022-12-15T04:09:49.939Z,22.80
2022-12-15T04:12:17.611Z,22.80
2022-12-15T04:14:45.295Z,22.70
2022-12-15T04:17:13.603Z,22.70
2022-12-15T04:19:58.968Z,22.70
2022-12-15T04:22:26.642Z,22.70
2022-12-15T04:25:13.521Z,22.70
2022-12-15T04:28:01.649Z,22.70
2022-12-15T04:30:49.079Z,22.70
2022-12-15T04:33:35.283Z,22.70
2022-12-15T04:36:21.309Z,22.70
2022-12-15T04:39:06.546Z,22.70
2022-12-15T04:41:53.149Z,22.70
2022-12-15T04:44:38.344Z,22.70
2022-12-15T04:47:23.626Z,22.70
2022-12-15T04:50:08.694Z,22.80
2022-12-15T04:52:53.920Z,22.70
2022-12-15T04:55:39.002Z,22.80
2022-12-15T04:58:26.844Z,22.80
2022-12-15T05:01:12.523Z,22.70
2022-12-15T05:03:57.729Z,22.80
2022-12-15T05:06:43.003Z,22.80
2022-12-15T05:09:28.307Z,22.80
2022-12-15T05:12:13.610Z,22.80
2022-12-15T05:15:00.193Z,22.80
2022-12-15T05:17:45.300Z,22.80
2022-12-15T05:20:30.538Z,22.80
2022-12-15T05:23:16.175Z,22.80
2022-12-15T05:26:01.894Z,22.80
2022-12-15T05:28:47.623Z,22.80
2022-12-15T05:31:34.023Z,22.80
2022-12-15T05:34:05.471Z,22.80
2022-12-15T05:36:33.678Z,22.80
2022-12-15T05:39:01.446Z,22.80
2022-12-15T05:41:29.126Z,22.90
2022-12-15T05:43:56.800Z,22.90
2022-12-15T05:46:25.918Z,22.90
2022-12-15T05:48:53.832Z,22.90
2022-12-15T05:51:21.517Z,22.90
2022-12-15T05:53:49.326Z,22.90
2022-12-15T05:56:17.217Z,23.00
2022-12-15T05:58:45.745Z,23.00
2022-12-15T06:01:15.916Z,23.00
2022-12-15T06:03:45.294Z,23.00
2022-12-15T06:06:14.262Z,23.00
2022-12-15T06:08:44.143Z,23.00
2022-12-15T06:11:13.262Z,23.10
2022-12-15T06:13:41.235Z,23.10
2022-12-15T06:16:13.405Z,23.10
2022-12-15T06:18:42.591Z,23.10
2022-12-15T06:21:12.946Z,23.10
2022-12-15T06:23:41.352Z,23.10
2022-12-15T06:26:10.392Z,23.20
2022-12-15T06:28:38.121Z,23.20
2022-12-15T06:31:07.913Z,23.20
2022-12-15T06:33:36.470Z,23.20
2022-12-15T06:36:05.101Z,23.20
2022-12-15T06:38:35.057Z,23.20
2022-12-15T06:41:04.780Z,23.20
2022-12-15T06:43:34.004Z,23.30
2022-12-15T06:46:02.459Z,23.30
2022-12-15T06:48:30.263Z,23.30
2022-12-15T06:51:02.997Z,23.30
2022-12-15T06:53:31.063Z,23.30
2022-12-15T06:56:03.009Z,23.30
2022-12-15T06:58:30.758Z,23.30
2022-12-15T07:00:58.629Z,23.30
2022-12-15T07:03:26.402Z,23.40
2022-12-15T07:06:03.420Z,23.40
2022-12-15T07:08:35.369Z,23.40
2022-12-15T07:11:10.064Z,23.40
2022-12-15T07:13:37.751Z,23.40
2022-12-15T07:16:07.699Z,23.40
2022-12-15T07:18:35.521Z,23.50
2022-12-15T07:21:04.403Z,23.50
2022-12-15T07:23:53.585Z,23.50
2022-12-15T07:26:21.177Z,23.50
2022-12-15T07:28:48.816Z,23.50
2022-12-15T07:31:16.571Z,23.50
2022-12-15T07:33:44.546Z,23.50
2022-12-15T07:36:12.230Z,23.50
2022-12-15T07:38:39.968Z,23.60
2022-12-15T07:41:09.032Z,23.60
2022-12-15T07:43:38.714Z,23.60
2022-12-15T07:46:07.432Z,23.60
2022-12-15T07:48:36.044Z,23.60
2022-12-15T07:51:12.308Z,23.60
2022-12-15T07:53:45.106Z,23.60
2022-12-15T07:56:12.956Z,23.60
2022-12-15T07:58:41.993Z,23.70
2022-12-15T08:01:12.611Z,23.70
2022-12-15T08:03:41.453Z,23.70
2022-12-15T08:06:11.484Z,23.70
2022-12-15T08:08:39.927Z,23.70
2022-12-15T08:11:09.064Z,23.70
2022-12-15T08:14:01.940Z,23.80
2022-12-15T08:16:27.120Z,23.80
2022-12-15T08:18:57.363Z,23.80
2022-12-15T08:21:25.412Z,23.80
2022-12-15T08:23:53.263Z,23.80
2022-12-15T08:26:25.167Z,23.80
2022-12-15T08:28:56.062Z,23.80
2022-12-15T08:31:26.002Z,23.80
2022-12-15T08:33:54.417Z,23.90
2022-12-15T08:36:22.114Z,23.90
2022-12-15T08:38:50.429Z,23.90
2022-12-15T08:41:20.903Z,23.90
2022-12-15T08:43:49.867Z,24.00
2022-12-15T08:46:18.735Z,24.00
2022-12-15T08:48:48.289Z,24.00
2022-12-15T08:51:17.023Z,24.00
2022-12-15T08:53:45.420Z,24.00
2022-12-15T08:56:17.010Z,24.00
2022-12-15T08:58:45.189Z,24.10
2022-12-15T09:01:22.160Z,24.10
2022-12-15T09:03:53.888Z,24.10
2022-12-15T09:06:24.566Z,24.10
2022-12-15T09:08:56.440Z,24.10
2022-12-15T09:11:24.848Z,24.20
2022-12-15T09:13:53.478Z,24.20
2022-12-15T09:16:22.330Z,24.20
2022-12-15T09:18:54.404Z,24.20
2022-12-15T09:21:23.898Z,24.20
2022-12-15T09:23:52.405Z,24.30
2022-12-15T09:26:21.788Z,24.30
2022-12-15T09:28:50.963Z,24.30
2022-12-15T09:31:22.129Z,24.30
2022-12-15T09:33:51.345Z,24.30
2022-12-15T09:36:20.799Z,24.40
2022-12-15T09:38:48.541Z,24.40
2022-12-15T09:41:22.862Z,24.40
2022-12-15T09:43:55.894Z,24.40
2022-12-15T09:46:30.214Z,24.40
2022-12-15T09:49:00.562Z,24.50
2022-12-15T09:51:35.339Z,24.50
2022-12-15T09:54:03.669Z,24.50
2022-12-15T09:56:40.277Z,24.50
2022-12-15T09:59:21.521Z,24.60
2022-12-15T10:01:56.949Z,24.60
2022-12-15T10:04:35.541Z,24.60
2022-12-15T10:07:09.341Z,24.60
2022-12-15T10:09:38.351Z,24.70
2022-12-15T10:12:10.965Z,24.70
2022-12-15T10:14:42.630Z,24.70
2022-12-15T10:17:21.484Z,24.70
2022-12-15T10:19:55.197Z,24.70
2022-12-15T10:22:27.423Z,24.70
2022-12-15T10:25:11.657Z,24.70
2022-12-15T10:28:00.690Z,24.80
2022-12-15T10:30:28.499Z,24.80
2022-12-15T10:33:03.570Z,24.80
2022-12-15T10:35:34.073Z,24.80
2022-12-15T10:38:05.004Z,24.80
2022-12-15T10:40:50.516Z,24.70
2022-12-15T10:43:26.802Z,24.70
2022-12-15T10:46:02.724Z,24.70
2022-12-15T10:48:30.756Z,24.70
2022-12-15T10:51:20.729Z,24.70
2022-12-15T10:53:52.268Z,24.70
2022-12-15T10:56:28.818Z,24.70
2022-12-15T10:59:02.225Z,24.70
2022-12-15T11:01:32.602Z,24.70
2022-12-15T11:04:02.168Z,24.70
2022-12-15T11:06:32.525Z,24.70
2022-12-15T11:09:21.290Z,24.70
2022-12-15T11:12:12.027Z,24.70
2022-12-15T11:14:46.431Z,24.70
2022-12-15T11:17:18.712Z,24.70
2022-12-15T11:19:58.208Z,24.70
2022-12-15T11:22:38.468Z,24.70
2022-12-15T11:25:21.472Z,24.70
2022-12-15T11:27:51.306Z,24.70
2022-12-15T11:30:22.250Z,24.70
2022-12-15T11:32:54.343Z,24.70
2022-12-15T11:35:29.127Z,24.70
2022-12-15T11:38:02.111Z,24.70
2022-12-15T11:40:41.606Z,24.70
2022-12-15T11:43:32.215Z,24.70
2022-12-15T11:46:19.668Z,24.70
2022-12-15T11:49:13.943Z,24.70
2022-12-15T11:51:45.418Z,24.60
2022-12-15T11:54:23.335Z,24.60
2022-12-15T11:57:00.752Z,24.60
2022-12-15T11:59:52.731Z,24.60
2022-12-15T12:03:00.373Z,24.60
2022-12-15T12:05:54.078Z,24.60
2022-12-15T12:08:36.575Z,24.60
2022-12-15T12:11:11.546Z,24.60
2022-12-15T12:13:50.737Z,24.60
2022-12-15T12:16:29.862Z,24.50
2022-12-15T12:19:03.213Z,24.50
2022-12-15T12:21:35.867Z,24.50
2022-12-15T12:24:07.472Z,24.50
2022-12-15T12:26:42.642Z,24.50
2022-12-15T12:29:19.735Z,24.50
2022-12-15T12:32:04.112Z,24.50
2022-12-15T12:34:40.029Z,24.50
2022-12-15T12:37:17.805Z,24.40
2022-12-15T12:39:46.094Z,24.40
2022-12-15T12:42:19.125Z,24.40
2022-12-15T12:44:48.609Z,24.40
2022-12-15T12:47:23.051Z,24.40
2022-12-15T12:49:54.853Z,24.40
2022-12-15T12:52:26.008Z,24.40
2022-12-15T12:54:58.586Z,24.40
2022-12-15T12:57:34.793Z,24.40
2022-12-15T13:00:25.167Z,24.40
2022-12-15T13:03:16.343Z,24.40
2022-12-15T13:05:50.534Z,24.40
2022-12-15T13:08:51.076Z,24.40
2022-12-15T13:12:00.841Z,24.40
2022-12-15T13:14:35.569Z,24.40
2022-12-15T13:17:25.900Z,24.40
2022-12-15T13:20:23.698Z,24.40
2022-12-15T13:22:52.047Z,24.40
2022-12-15T13:25:51.886Z,24.40
2022-12-15T13:28:43.672Z,24.40
2022-12-15T13:31:28.521Z,24.40
2022-12-15T13:34:04.182Z,24.40
2022-12-15T13:36:50.735Z,24.40
2022-12-15T13:39:53.150Z,24.40
2022-12-15T13:42:40.812Z,24.40
2022-12-15T13:45:36.297Z,24.40
2022-12-15T13:48:13.283Z,24.40
2022-12-15T13:50:51.441Z,24.40
2022-12-15T13:53:22.552Z,24.40
2022-12-15T13:56:19.497Z,24.40
2022-12-15T13:58:52.925Z,24.40
2022-12-15T14:01:27.211Z,24.40
2022-12-15T14:04:05.942Z,24.40
2022-12-15T14:06:41.717Z,24.40
2022-12-15T14:09:14.995Z,24.40
2022-12-15T14:14:35.487Z,24.40
2022-12-15T14:17:07.600Z,24.40
2022-12-15T14:19:40.514Z,24.40
2022-12-15T14:22:27.669Z,24.40
2022-12-15T14:25:02.607Z,24.40
2022-12-15T14:27:32.825Z,24.40
2022-12-15T14:30:22.284Z,24.40
2022-12-15T14:32:52.980Z,24.40
2022-12-15T14:35:26.304Z,24.40
2022-12-15T14:37:58.062Z,24.40
2022-12-15T14:40:29.071Z,24.40
2022-12-15T14:42:57.400Z,24.40
2022-12-15T14:45:28.202Z,24.40
2022-12-15T14:48:39.857Z,24.40
2022-12-15T14:50:48.695Z,24.40
2022-12-15T14:53:19.439Z,24.40
2022-12-15T14:55:47.603Z,24.40
2022-12-15T14:58:30.373Z,24.40
2022-12-15T15:01:00.108Z,24.40
2022-12-15T15:03:36.314Z,24.40
2022-12-15T15:06:08.502Z,24.40
2022-12-15T15:08:44.009Z,24.50
2022-12-15T15:11:23.939Z,24.50
2022-12-15T15:13:58.252Z,24.40
2022-12-15T15:16:26.302Z,24.40
2022-12-15T15:18:56.943Z,24.40
2022-12-15T15:21:27.847Z,24.40
2022-12-15T15:24:01.826Z,24.50
2022-12-15T15:26:30.880Z,24.50
2022-12-15T15:28:59.061Z,24.50
2022-12-15T15:31:36.690Z,24.50
2022-12-15T15:34:08.132Z,24.50
2022-12-15T15:36:37.757Z,24.50
2022-12-15T15:39:15.042Z,24.50
2022-12-15T15:41:43.140Z,24.50
2022-12-15T15:44:13.883Z,24.50
2022-12-15T15:46:47.121Z,24.50
2022-12-15T15:49:17.923Z,24.50
2022-12-15T15:51:45.614Z,24.50
2022-12-15T15:54:17.432Z,24.50
2022-12-15T15:56:45.117Z,24.50
2022-12-15T15:59:14.438Z,24.50
2022-12-15T16:01:42.387Z,24.50
2022-12-15T16:04:10.220Z,24.50
2022-12-15T16:06:42.077Z,24.50
2022-12-15T16:09:16.730Z,24.50
2022-12-15T16:11:45.182Z,24.40
2022-12-15T16:14:14.217Z,24.50
2022-12-15T16:16:42.719Z,24.40
2022-12-15T16:19:11.965Z,24.40
2022-12-15T16:21:40.811Z,24.40
2022-12-15T16:24:11.485Z,24.40
2022-12-15T16:26:47.867Z,24.40
2022-12-15T16:29:16.977Z,24.40
2022-12-15T16:31:45.752Z,24.40
2022-12-15T16:34:13.771Z,24.40
2022-12-15T16:36:42.089Z,24.40
2022-12-15T16:39:24.721Z,24.40
2022-12-15T16:41:55.962Z,24.40
2022-12-15T16:44:23.776Z,24.40
2022-12-15T16:46:51.854Z,24.40
2022-12-15T16:49:19.855Z,24.40
2022-12-15T16:51:50.217Z,24.40
2022-12-15T16:54:22.291Z,24.40
2022-12-15T16:56:50.213Z,24.40
2022-12-15T16:59:33.610Z,24.40
2022-12-15T17:02:02.357Z,24.40
2022-12-15T17:04:30.211Z,24.40
2022-12-15T17:06:57.839Z,24.40
2022-12-15T17:09:27.235Z,24.40
2022-12-15T17:11:55.030Z,24.40
2022-12-15T17:14:24.943Z,24.40
2022-12-15T17:16:52.597Z,24.40
2022-12-15T17:19:21.500Z,24.40
2022-12-15T17:21:52.530Z,24.40
2022-12-15T17:24:22.263Z,24.40
2022-12-15T17:26:55.842Z,24.40
2022-12-15T17:29:26.252Z,24.40
2022-12-15T17:31:54.744Z,24.40
2022-12-15T17:34:27.334Z,24.40
2022-12-15T17:36:55.443Z,24.40
2022-12-15T17:39:23.804Z,24.40
2022-12-15T17:42:01.113Z,24.40
2022-12-15T17:44:35.032Z,24.40
2022-12-15T17:47:04.360Z,24.40
2022-12-15T17:49:36.115Z,24.40
2022-12-15T17:52:07.479Z,24.40
2022-12-15T17:54:35.596Z,24.40
2022-12-15T17:57:03.264Z,24.40
2022-12-15T17:59:32.301Z,24.40
2022-12-15T18:02:00.095Z,24.40
2022-12-15T18:04:27.891Z,24.40
2022-12-15T18:07:01.512Z,24.40
2022-12-15T18:09:30.039Z,24.40
2022-12-15T18:11:57.838Z,24.40
2022-12-15T18:14:25.503Z,24.40
2022-12-15T18:16:54.597Z,24.40
2022-12-15T18:19:23.294Z,24.40
2022-12-15T18:21:50.960Z,24.40
2022-12-15T18:24:21.530Z,24.40
2022-12-15T18:26:49.209Z,24.40
2022-12-15T18:29:18.478Z,24.40
2022-12-15T18:31:48.267Z,24.40
2022-12-15T18:34:21.085Z,24.40
2022-12-15T18:36:50.307Z,24.40
2022-12-15T18:39:20.118Z,24.40
2022-12-15T18:41:49.081Z,24.40
2022-12-15T18:44:22.683Z,24.40
2022-12-15T18:46:50.505Z,24.40
2022-12-15T18:49:20.184Z,24.40
2022-12-15T18:51:48.124Z,24.40
2022-12-15T18:54:17.678Z,24.40
2022-12-15T18:56:45.476Z,24.40
2022-12-15T18:59:15.683Z,24.40
2022-12-15T19:01:44.149Z,24.40
2022-12-15T19:04:12.285Z,24.40
2022-12-15T19:06:41.808Z,24.40
2022-12-15T19:09:15.177Z,24.40
2022-12-15T19:12:03.599Z,24.40
2022-12-15T19:14:44.022Z,24.40
2022-12-15T19:17:32.536Z,24.40
2022-12-15T19:20:17.907Z,24.40
2022-12-15T19:22:48.603Z,24.40
2022-12-15T19:25:25.576Z,24.40
2022-12-15T19:27:58.900Z,24.40
2022-12-15T19:30:28.281Z,24.40
2022-12-15T19:32:56.609Z,24.40
2022-12-15T19:35:24.834Z,24.40
2022-12-15T19:37:55.912Z,24.40
2022-12-15T19:40:27.777Z,24.40
2022-12-15T19:42:55.848Z,24.40
2022-12-15T19:45:26.087Z,24.40
2022-12-15T19:47:54.124Z,24.40
2022-12-15T19:50:24.511Z,24.40
2022-12-15T19:52:57.646Z,24.40
2022-12-15T19:55:28.066Z,24.50
2022-12-15T19:57:55.849Z,24.50
2022-12-15T20:00:24.810Z,24.40
2022-12-15T20:02:54.702Z,24.50
2022-12-15T20:05:23.295Z,24.50
2022-12-15T20:07:54.135Z,24.50
2022-12-15T20:10:29.363Z,24.50
2022-12-15T20:13:00.007Z,24.50
2022-12-15T20:15:27.707Z,24.50
2022-12-15T20:17:56.874Z,24.50
2022-12-15T20:20:27.058Z,24.50
2022-12-15T20:22:58.672Z,24.50
2022-12-15T20:25:28.120Z,24.50
2022-12-15T20:27:56.269Z,24.50
2022-12-15T20:30:26.533Z,24.50
2022-12-15T20:32:54.360Z,24.50
2022-12-15T20:35:23.171Z,24.50
2022-12-15T20:37:52.499Z,24.50
2022-12-15T20:40:24.829Z,24.50
2022-12-15T20:42:52.963Z,24.50
2022-12-15T20:45:22.472Z,24.50
2022-12-15T20:47:52.531Z,24.50
2022-12-15T20:50:25.754Z,24.50
2022-12-15T20:52:54.970Z,24.50
2022-12-15T20:55:24.182Z,24.50
2022-12-15T20:57:52.236Z,24.50
2022-12-15T21:00:20.839Z,24.50
2022-12-15T21:02:48.946Z,24.60
2022-12-15T21:05:18.838Z,24.60
2022-12-15T21:07:46.955Z,24.60
2022-12-15T21:10:16.288Z,24.60
2022-12-15T21:12:47.492Z,24.60
2022-12-15T21:15:16.913Z,24.60
2022-12-15T21:17:45.411Z,24.60
2022-12-15T21:20:14.643Z,24.60
2022-12-15T21:22:42.921Z,24.60
2022-12-15T21:25:20.633Z,24.60
2022-12-15T21:27:49.638Z,24.60
2022-12-15T21:30:20.463Z,24.70
2022-12-15T21:32:48.617Z,24.70
2022-12-15T21:35:17.949Z,24.60
2022-12-15T21:37:48.074Z,24.70
2022-12-15T21:40:20.770Z,24.70
2022-12-15T21:42:51.054Z,24.70
2022-12-15T21:45:21.156Z,24.70
2022-12-15T21:48:07.271Z,24.70
2022-12-15T21:50:36.547Z,24.70
2022-12-15T21:53:06.527Z,24.70
2022-12-15T21:55:34.566Z,24.70
2022-12-15T21:58:03.571Z,24.70
2022-12-15T22:00:31.303Z,24.70
2022-12-15T22:02:59.056Z,24.70
2022-12-15T22:05:30.339Z,24.70
2022-12-15T22:07:59.495Z,24.80
2022-12-15T22:10:27.530Z,24.80
2022-12-15T22:12:59.540Z,24.80
2022-12-15T22:15:30.049Z,24.80
2022-12-15T22:17:57.900Z,24.80
2022-12-15T22:20:26.431Z,24.80
2022-12-15T22:22:54.219Z,24.80
2022-12-15T22:25:24.954Z,24.80
2022-12-15T22:27:54.750Z,24.80
2022-12-15T22:30:25.071Z,24.80
2022-12-15T22:32:54.349Z,24.90
2022-12-15T22:35:23.800Z,24.90
2022-12-15T22:37:53.876Z,24.90
2022-12-15T22:40:24.105Z,24.90
2022-12-15T22:42:56.175Z,24.90
2022-12-15T22:45:24.892Z,24.90
2022-12-15T22:47:55.148Z,24.90
2022-12-15T22:50:26.346Z,24.90
2022-12-15T22:52:55.123Z,24.90
2022-12-15T22:55:24.231Z,24.90
2022-12-15T22:57:57.933Z,24.90
2022-12-15T23:00:26.139Z,24.90
2022-12-15T23:02:55.488Z,24.90
2022-12-15T23:05:23.307Z,24.90
2022-12-15T23:07:51.251Z,24.90
2022-12-15T23:10:38.245Z,25.00
2022-12-15T23:13:06.428Z,24.90
2022-12-15T23:15:52.321Z,25.00
2022-12-15T23:18:21.519Z,24.90
2022-12-15T23:20:51.550Z,25.00
2022-12-15T23:23:19.603Z,25.00
2022-12-15T23:25:47.439Z,25.00
2022-12-15T23:28:15.164Z,25.00
2022-12-15T23:30:42.814Z,25.00
2022-12-15T23:33:10.514Z,25.00
2022-12-15T23:35:41.793Z,25.00
2022-12-15T23:38:09.437Z,25.00
2022-12-15T23:40:37.138Z,25.00
2022-12-15T23:43:04.911Z,24.90
2022-12-15T23:45:32.601Z,24.90
2022-12-15T23:48:00.227Z,24.90
2022-12-15T23:50:27.953Z,24.90
2022-12-15T23:52:56.967Z,24.90
2022-12-15T23:55:24.623Z,24.90
2022-12-15T23:57:52.300Z,24.90
